createdAt,value
2022-11-06T00:01:51.850Z,100.00
2022-11-06T00:04:19.335Z,100.00
2022-11-06T00:06:49.601Z,100.00
2022-11-06T00:09:19.813Z,100.00
2022-11-06T00:11:48.944Z,100.00
2022-11-06T00:14:17.478Z,100.00
2022-11-06T00:16:47.403Z,100.00
2022-11-06T00:19:15.428Z,100.00
2022-11-06T00:21:43.503Z,100.00
2022-11-06T00:24:13.742Z,100.00
2022-11-06T00:26:41.213Z,100.00
2022-11-06T00:29:13.911Z,100.00
2022-11-06T00:31:41.542Z,100.00
2022-11-06T00:34:10.956Z,100.00
2022-11-06T00:36:38.807Z,100.00
2022-11-06T00:39:06.185Z,100.00
2022-11-06T00:41:33.494Z,100.00
2022-11-06T00:44:02.833Z,100.00
2022-11-06T00:46:30.628Z,100.00
2022-11-06T00:48:58.440Z,100.00
2022-11-06T00:51:29.246Z,100.00
2022-11-06T00:53:59.021Z,100.00
2022-11-06T00:56:27.164Z,100.00
2022-11-06T00:58:55.475Z,100.00
2022-11-06T01:01:25.613Z,100.00
2022-11-06T01:04:04.659Z,100.00
2022-11-06T01:06:40.716Z,100.00
2022-11-06T01:09:08.942Z,100.00
2022-11-06T01:12:07.028Z,100.00
2022-11-06T01:14:28.404Z,100.00
2022-11-06T01:16:55.805Z,100.00
2022-11-06T01:19:23.774Z,100.00
2022-11-06T01:21:53.316Z,100.00
2022-11-06T01:24:26.853Z,100.00
2022-11-06T01:29:42.511Z,100.00
2022-11-06T01:32:10.679Z,100.00
2022-11-06T01:34:38.081Z,100.00
2022-11-06T01:37:06.383Z,100.00
2022-11-06T01:39:35.602Z,100.00
2022-11-06T01:42:03.164Z,100.00
2022-11-06T01:44:56.577Z,100.00
2022-11-06T01:47:27.595Z,100.00
2022-11-06T01:49:59.081Z,100.00
2022-11-06T01:52:28.551Z,100.00
2022-11-06T01:55:01.104Z,100.00
2022-11-06T01:57:30.455Z,100.00
2022-11-06T01:59:58.206Z,100.00
2022-11-06T02:02:25.846Z,100.00
2022-11-06T02:04:53.274Z,100.00
2022-11-06T02:07:21.565Z,100.00
2022-11-06T02:09:48.973Z,100.00
2022-11-06T02:12:34.967Z,100.00
2022-11-06T02:15:29.709Z,100.00
2022-11-06T02:18:07.980Z,100.00
2022-11-06T02:21:21.823Z,100.00
2022-11-06T02:24:06.555Z,100.00
2022-11-06T02:27:04.529Z,100.00
2022-11-06T02:29:35.804Z,100.00
2022-11-06T02:32:11.608Z,100.00
2022-11-06T02:34:40.517Z,100.00
2022-11-06T02:37:12.825Z,100.00
2022-11-06T02:39:44.947Z,100.00
2022-11-06T02:42:16.731Z,100.00
2022-11-06T02:44:46.970Z,100.00
2022-11-06T02:47:15.457Z,100.00
2022-11-06T02:49:55.080Z,100.00
2022-11-06T02:52:33.044Z,100.00
2022-11-06T02:55:26.202Z,100.00
2022-11-06T02:58:01.271Z,100.00
2022-11-06T03:00:29.148Z,100.00
2022-11-06T03:03:04.773Z,100.00
2022-11-06T03:05:39.714Z,100.00
2022-11-06T03:08:25.700Z,100.00
2022-11-06T03:11:03.781Z,100.00
2022-11-06T03:13:54.185Z,100.00
2022-11-06T03:16:44.647Z,100.00
2022-11-06T03:19:18.822Z,100.00
2022-11-06T03:22:09.253Z,100.00
2022-11-06T03:24:39.658Z,100.00
2022-11-06T03:27:14.945Z,100.00
2022-11-06T03:30:03.254Z,100.00
2022-11-06T03:33:03.351Z,100.00
2022-11-06T03:35:55.670Z,100.00
2022-11-06T03:38:32.590Z,100.00
2022-11-06T03:41:10.729Z,100.00
2022-11-06T03:43:42.809Z,100.00
2022-11-06T03:46:16.848Z,100.00
2022-11-06T03:48:49.875Z,100.00
2022-11-06T03:51:29.139Z,100.00
2022-11-06T03:54:03.007Z,100.00
2022-11-06T03:56:41.847Z,100.00
2022-11-06T03:59:10.960Z,100.00
2022-11-06T04:01:44.679Z,100.00
2022-11-06T04:04:19.657Z,100.00
2022-11-06T04:06:57.704Z,100.00
2022-11-06T04:09:47.644Z,100.00
2022-11-06T04:12:38.767Z,100.00
2022-11-06T04:15:09.568Z,100.00
2022-11-06T04:17:38.506Z,100.00
2022-11-06T04:20:10.990Z,100.00
2022-11-06T04:22:47.477Z,100.00
2022-11-06T04:25:42.404Z,100.00
2022-11-06T04:28:35.145Z,100.00
2022-11-06T04:31:11.492Z,100.00
2022-11-06T04:33:57.107Z,100.00
2022-11-06T04:36:55.565Z,100.00
2022-11-06T04:39:26.174Z,100.00
2022-11-06T04:42:28.571Z,100.00
2022-11-06T04:45:03.627Z,100.00
2022-11-06T04:47:31.892Z,100.00
2022-11-06T04:50:02.484Z,100.00
2022-11-06T04:52:30.720Z,100.00
2022-11-06T04:54:59.601Z,100.00
2022-11-06T04:57:27.429Z,100.00
2022-11-06T04:59:57.136Z,100.00
2022-11-06T05:02:24.987Z,100.00
2022-11-06T05:04:52.897Z,100.00
2022-11-06T05:07:20.869Z,100.00
2022-11-06T05:09:48.252Z,100.00
2022-11-06T05:12:15.626Z,100.00
2022-11-06T05:14:43.127Z,100.00
2022-11-06T05:17:10.507Z,100.00
2022-11-06T05:19:37.887Z,100.00
2022-11-06T05:22:23.859Z,100.00
2022-11-06T05:24:51.250Z,100.00
2022-11-06T05:27:19.003Z,100.00
2022-11-06T05:29:46.510Z,100.00
2022-11-06T05:32:13.937Z,100.00
2022-11-06T05:34:43.568Z,100.00
2022-11-06T05:37:12.362Z,100.00
2022-11-06T05:39:41.980Z,100.00
2022-11-06T05:42:10.009Z,100.00
2022-11-06T05:44:38.231Z,100.00
2022-11-06T05:47:05.601Z,100.00
2022-11-06T05:49:32.922Z,100.00
2022-11-06T05:52:00.297Z,100.00
2022-11-06T05:54:27.773Z,100.00
2022-11-06T05:56:55.152Z,100.00
2022-11-06T05:59:22.560Z,100.00
2022-11-06T06:01:50.017Z,100.00
2022-11-06T06:04:17.443Z,100.00
2022-11-06T06:06:45.164Z,100.00
2022-11-06T06:09:12.454Z,100.00
2022-11-06T06:11:40.438Z,100.00
2022-11-06T06:14:07.858Z,100.00
2022-11-06T06:16:35.275Z,100.00
2022-11-06T06:19:02.752Z,100.00
2022-11-06T06:21:30.092Z,100.00
2022-11-06T06:23:57.532Z,100.00
2022-11-06T06:26:24.897Z,100.00
2022-11-06T06:28:52.248Z,100.00
2022-11-06T06:31:19.580Z,100.00
2022-11-06T06:33:46.944Z,100.00
2022-11-06T06:36:14.546Z,100.00
2022-11-06T06:38:42.456Z,100.00
2022-11-06T06:41:09.949Z,100.00
2022-11-06T06:43:37.543Z,100.00
2022-11-06T06:46:07.666Z,100.00
2022-11-06T06:48:36.023Z,100.00
2022-11-06T06:51:04.070Z,100.00
2022-11-06T06:53:31.398Z,100.00
2022-11-06T06:56:00.900Z,100.00
2022-11-06T06:58:29.385Z,100.00
2022-11-06T07:01:01.378Z,100.00
2022-11-06T07:03:29.166Z,100.00
2022-11-06T07:05:58.772Z,100.00
2022-11-06T07:08:27.578Z,100.00
2022-11-06T07:11:03.036Z,100.00
2022-11-06T07:13:35.465Z,100.00
2022-11-06T07:16:09.166Z,100.00
2022-11-06T07:18:37.614Z,100.00
2022-11-06T07:21:11.047Z,100.00
2022-11-06T07:23:38.978Z,100.00
2022-11-06T07:26:06.959Z,100.00
2022-11-06T07:28:34.498Z,100.00
2022-11-06T07:31:04.170Z,100.00
2022-11-06T07:33:31.765Z,100.00
2022-11-06T07:36:04.498Z,100.00
2022-11-06T07:38:34.802Z,100.00
2022-11-06T07:41:11.209Z,100.00
2022-11-06T07:43:39.344Z,100.00
2022-11-06T07:46:09.036Z,100.00
2022-11-06T07:48:36.468Z,100.00
2022-11-06T07:51:06.399Z,100.00
2022-11-06T07:53:34.538Z,100.00
2022-11-06T07:56:02.363Z,100.00
2022-11-06T07:58:29.904Z,100.00
2022-11-06T08:00:59.216Z,100.00
2022-11-06T08:03:30.486Z,100.00
2022-11-06T08:05:59.081Z,100.00
2022-11-06T08:08:27.735Z,100.00
2022-11-06T08:10:55.358Z,100.00
2022-11-06T08:13:22.723Z,100.00
2022-11-06T08:15:50.213Z,100.00
2022-11-06T08:18:17.843Z,100.00
2022-11-06T08:20:46.553Z,100.00
2022-11-06T08:23:14.601Z,100.00
2022-11-06T08:25:42.020Z,100.00
2022-11-06T08:28:09.980Z,100.00
2022-11-06T08:30:37.528Z,100.00
2022-11-06T08:33:08.274Z,100.00
2022-11-06T08:35:35.855Z,100.00
2022-11-06T08:38:04.201Z,100.00
2022-11-06T08:40:32.683Z,100.00
2022-11-06T08:43:01.590Z,100.00
2022-11-06T08:45:29.243Z,100.00
2022-11-06T08:48:01.899Z,100.00
2022-11-06T08:50:29.992Z,100.00
2022-11-06T08:52:58.453Z,100.00
2022-11-06T08:55:25.809Z,100.00
2022-11-06T08:57:56.290Z,100.00
2022-11-06T09:00:24.208Z,100.00
2022-11-06T09:02:51.911Z,100.00
2022-11-06T09:05:19.380Z,100.00
2022-11-06T09:07:46.765Z,100.00
2022-11-06T09:10:14.167Z,100.00
2022-11-06T09:12:41.602Z,100.00
2022-11-06T09:15:09.399Z,100.00
2022-11-06T09:17:44.155Z,100.00
2022-11-06T09:20:13.473Z,100.00
2022-11-06T09:22:41.518Z,100.00
2022-11-06T09:25:10.132Z,100.00
2022-11-06T09:27:47.631Z,100.00
2022-11-06T09:30:18.270Z,100.00
2022-11-06T09:32:51.351Z,100.00
2022-11-06T09:35:20.005Z,100.00
2022-11-06T09:37:47.662Z,100.00
2022-11-06T09:40:34.624Z,100.00
2022-11-06T09:43:15.360Z,100.00
2022-11-06T09:45:43.537Z,100.00
2022-11-06T09:48:16.383Z,100.00
2022-11-06T09:50:57.234Z,100.00
2022-11-06T09:53:41.177Z,100.00
2022-11-06T09:56:13.256Z,100.00
2022-11-06T09:58:44.104Z,100.00
2022-11-06T10:01:23.402Z,100.00
2022-11-06T10:03:57.170Z,100.00
2022-11-06T10:06:25.929Z,100.00
2022-11-06T10:08:58.584Z,100.00
2022-11-06T10:11:36.123Z,100.00
2022-11-06T10:14:27.682Z,100.00
2022-11-06T10:17:13.552Z,100.00
2022-11-06T10:19:56.412Z,100.00
2022-11-06T10:22:34.562Z,100.00
2022-11-06T10:25:22.369Z,100.00
2022-11-06T10:28:11.771Z,100.00
2022-11-06T10:31:08.069Z,100.00
2022-11-06T10:33:55.815Z,97.55
2022-11-06T10:36:35.211Z,97.06
2022-11-06T10:39:05.016Z,97.83
2022-11-06T10:41:35.926Z,99.85
2022-11-06T10:44:13.204Z,100.00
2022-11-06T10:46:49.349Z,100.00
2022-11-06T10:49:54.383Z,100.00
2022-11-06T10:52:31.372Z,100.00
2022-11-06T10:55:26.525Z,100.00
2022-11-06T10:58:07.382Z,99.08
2022-11-06T11:00:35.606Z,98.56
2022-11-06T11:03:06.900Z,100.00
2022-11-06T11:05:44.584Z,100.00
2022-11-06T11:08:42.821Z,100.00
2022-11-06T11:11:16.193Z,100.00
2022-11-06T11:13:48.775Z,100.00
2022-11-06T11:16:30.028Z,100.00
2022-11-06T11:19:16.726Z,100.00
2022-11-06T11:21:59.508Z,100.00
2022-11-06T11:24:27.898Z,99.04
2022-11-06T11:27:07.360Z,100.00
2022-11-06T11:29:45.038Z,100.00
2022-11-06T11:32:16.381Z,100.00
2022-11-06T11:34:56.593Z,100.00
2022-11-06T11:37:32.536Z,100.00
2022-11-06T11:40:19.933Z,100.00
2022-11-06T11:42:47.327Z,100.00
2022-11-06T11:45:19.612Z,100.00
2022-11-06T11:47:49.917Z,100.00
2022-11-06T11:50:26.033Z,100.00
2022-11-06T11:53:10.175Z,100.00
2022-11-06T11:55:45.538Z,100.00
2022-11-06T11:58:24.346Z,100.00
2022-11-06T12:01:04.724Z,100.00
2022-11-06T12:03:42.161Z,100.00
2022-11-06T12:06:18.895Z,100.00
2022-11-06T12:08:56.364Z,100.00
2022-11-06T12:11:26.278Z,100.00
2022-11-06T12:14:21.664Z,100.00
2022-11-06T12:16:51.948Z,100.00
2022-11-06T12:19:24.482Z,100.00
2022-11-06T12:22:00.207Z,100.00
2022-11-06T12:24:44.141Z,100.00
2022-11-06T12:27:20.873Z,100.00
2022-11-06T12:29:56.758Z,100.00
2022-11-06T12:32:37.353Z,100.00
2022-11-06T12:35:04.638Z,99.59
2022-11-06T12:37:46.959Z,100.00
2022-11-06T12:40:24.688Z,100.00
2022-11-06T12:42:52.940Z,100.00
2022-11-06T12:45:23.761Z,100.00
2022-11-06T12:48:17.661Z,100.00
2022-11-06T12:51:18.595Z,100.00
2022-11-06T12:54:03.096Z,100.00
2022-11-06T12:56:49.494Z,100.00
2022-11-06T12:59:27.828Z,100.00
2022-11-06T13:02:35.354Z,100.00
2022-11-06T13:05:15.468Z,100.00
2022-11-06T13:08:01.416Z,100.00
2022-11-06T13:10:48.973Z,100.00
2022-11-06T13:13:33.454Z,100.00
2022-11-06T13:16:37.435Z,100.00
2022-11-06T13:19:23.195Z,100.00
2022-11-06T13:22:11.731Z,100.00
2022-11-06T13:24:48.617Z,100.00
2022-11-06T13:27:31.172Z,100.00
2022-11-06T13:30:12.447Z,100.00
2022-11-06T13:32:47.351Z,100.00
2022-11-06T13:35:21.137Z,100.00
2022-11-06T13:37:50.420Z,100.00
2022-11-06T13:40:36.477Z,100.00
2022-11-06T13:43:17.337Z,100.00
2022-11-06T13:46:13.059Z,100.00
2022-11-06T13:49:28.528Z,100.00
2022-11-06T13:52:02.857Z,100.00
2022-11-06T13:54:39.881Z,100.00
2022-11-06T13:57:25.422Z,100.00
2022-11-06T14:00:21.005Z,100.00
2022-11-06T14:03:21.940Z,100.00
2022-11-06T14:05:58.271Z,100.00
2022-11-06T14:08:39.712Z,100.00
2022-11-06T14:11:16.905Z,100.00
2022-11-06T14:13:59.184Z,100.00
2022-11-06T14:16:35.024Z,100.00
2022-11-06T14:19:22.695Z,100.00
2022-11-06T14:21:56.084Z,100.00
2022-11-06T14:24:33.344Z,100.00
2022-11-06T14:27:06.920Z,100.00
2022-11-06T14:29:37.032Z,100.00
2022-11-06T14:32:32.190Z,100.00
2022-11-06T14:35:33.512Z,100.00
2022-11-06T14:38:09.992Z,100.00
2022-11-06T14:40:39.269Z,100.00
2022-11-06T14:43:25.007Z,100.00
2022-11-06T14:45:59.897Z,100.00
2022-11-06T14:48:34.198Z,100.00
2022-11-06T14:51:05.596Z,100.00
2022-11-06T14:54:01.190Z,100.00
2022-11-06T14:56:34.169Z,100.00
2022-11-06T14:59:09.239Z,100.00
2022-11-06T15:01:38.337Z,100.00
2022-11-06T15:04:15.510Z,100.00
2022-11-06T15:06:47.532Z,100.00
2022-11-06T15:09:16.550Z,98.73
2022-11-06T15:12:07.843Z,98.00
2022-11-06T15:14:35.278Z,94.80
2022-11-06T15:17:13.063Z,98.71
2022-11-06T15:20:00.057Z,99.29
2022-11-06T15:22:47.780Z,99.74
2022-11-06T15:25:20.701Z,100.00
2022-11-06T15:28:06.055Z,96.75
2022-11-06T15:30:53.028Z,95.11
2022-11-06T15:33:40.879Z,97.30
2022-11-06T15:36:14.084Z,96.39
2022-11-06T15:38:43.410Z,95.46
2022-11-06T15:41:19.245Z,97.77
2022-11-06T15:43:49.838Z,96.25
2022-11-06T15:46:26.786Z,97.50
2022-11-06T15:49:18.163Z,97.94
2022-11-06T15:51:57.844Z,97.90
2022-11-06T15:54:56.752Z,99.43
2022-11-06T15:57:28.693Z,97.31
2022-11-06T16:00:16.350Z,99.37
2022-11-06T16:02:56.998Z,97.98
2022-11-06T16:05:25.459Z,95.08
2022-11-06T16:07:53.241Z,95.37
2022-11-06T16:10:23.131Z,94.67
2022-11-06T16:12:56.021Z,94.81
2022-11-06T16:15:45.409Z,94.18
2022-11-06T16:18:23.219Z,91.83
2022-11-06T16:20:57.649Z,91.74
2022-11-06T16:23:39.257Z,90.71
2022-11-06T16:26:13.704Z,89.32
2022-11-06T16:28:47.106Z,88.70
2022-11-06T16:31:18.020Z,90.34
2022-11-06T16:33:59.978Z,91.95
2022-11-06T16:36:30.366Z,90.43
2022-11-06T16:39:20.962Z,91.03
2022-11-06T16:42:28.029Z,88.90
2022-11-06T16:45:02.343Z,89.03
2022-11-06T16:47:31.169Z,86.69
2022-11-06T16:49:58.957Z,85.19
2022-11-06T16:52:39.711Z,85.25
2022-11-06T16:55:25.458Z,86.54
2022-11-06T16:57:56.295Z,86.84
2022-11-06T17:00:31.929Z,87.25
2022-11-06T17:03:19.106Z,86.15
2022-11-06T17:05:57.792Z,85.72
2022-11-06T17:08:39.386Z,79.74
2022-11-06T17:11:12.989Z,80.06
2022-11-06T17:13:45.467Z,79.59
2022-11-06T17:16:23.697Z,78.97
2022-11-06T17:18:51.979Z,79.83
2022-11-06T17:21:20.049Z,80.53
2022-11-06T17:23:48.154Z,81.62
2022-11-06T17:26:38.040Z,82.66
2022-11-06T17:29:06.509Z,80.19
2022-11-06T17:31:33.909Z,80.98
2022-11-06T17:34:01.366Z,80.44
2022-11-06T17:36:31.319Z,79.11
2022-11-06T17:39:00.348Z,79.08
2022-11-06T17:41:30.809Z,79.39
2022-11-06T17:44:06.450Z,79.27
2022-11-06T17:46:39.297Z,77.40
2022-11-06T17:49:07.628Z,78.35
2022-11-06T17:52:00.412Z,78.35
2022-11-06T17:54:34.263Z,78.70
2022-11-06T17:57:03.988Z,78.83
2022-11-06T17:59:32.906Z,78.15
2022-11-06T18:02:00.879Z,80.19
2022-11-06T18:04:34.517Z,77.88
2022-11-06T18:07:02.124Z,76.34
2022-11-06T18:09:29.609Z,75.58
2022-11-06T18:11:57.088Z,76.63
2022-11-06T18:14:26.126Z,76.84
2022-11-06T18:16:53.958Z,75.91
2022-11-06T18:19:23.666Z,78.80
2022-11-06T18:21:52.627Z,78.76
2022-11-06T18:24:20.037Z,75.86
2022-11-06T18:26:47.953Z,76.55
2022-11-06T18:29:15.721Z,79.38
2022-11-06T18:31:43.308Z,79.07
2022-11-06T18:34:18.344Z,76.59
2022-11-06T18:36:50.997Z,75.49
2022-11-06T18:39:20.739Z,74.95
2022-11-06T18:41:48.340Z,76.72
2022-11-06T18:44:18.065Z,76.93
2022-11-06T18:46:46.930Z,77.16
2022-11-06T18:49:14.731Z,78.63
2022-11-06T18:51:42.403Z,77.00
2022-11-06T18:54:11.542Z,74.61
2022-11-06T18:56:39.371Z,74.79
2022-11-06T18:59:08.367Z,76.76
2022-11-06T19:01:36.021Z,76.72
2022-11-06T19:04:04.873Z,75.12
2022-11-06T19:06:33.213Z,75.30
2022-11-06T19:09:00.746Z,77.05
2022-11-06T19:11:28.203Z,75.36
2022-11-06T19:13:55.586Z,72.67
2022-11-06T19:16:23.064Z,71.32
2022-11-06T19:21:30.952Z,72.97
2022-11-06T19:24:05.251Z,72.70
2022-11-06T19:26:37.399Z,73.05
2022-11-06T19:29:08.375Z,72.14
2022-11-06T19:31:37.809Z,72.42
2022-11-06T19:34:06.967Z,71.68
2022-11-06T19:36:34.420Z,71.54
2022-11-06T19:39:02.247Z,71.59
2022-11-06T19:41:29.909Z,72.79
2022-11-06T19:43:57.388Z,69.48
2022-11-06T19:46:27.222Z,72.82
2022-11-06T19:48:55.921Z,72.92
2022-11-06T19:51:23.396Z,73.53
2022-11-06T19:53:53.593Z,75.20
2022-11-06T19:56:21.932Z,75.44
2022-11-06T19:58:50.421Z,74.38
2022-11-06T20:01:20.672Z,72.73
2022-11-06T20:03:48.223Z,70.86
2022-11-06T20:06:16.590Z,70.69
2022-11-06T20:08:47.771Z,70.84
2022-11-06T20:11:16.443Z,74.28
2022-11-06T20:13:45.548Z,73.39
2022-11-06T20:16:18.301Z,72.45
2022-11-06T20:18:54.555Z,67.64
2022-11-06T20:21:23.242Z,70.37
2022-11-06T20:23:50.709Z,69.32
2022-11-06T20:26:18.825Z,70.15
2022-11-06T20:28:47.284Z,71.32
2022-11-06T20:31:18.725Z,71.42
2022-11-06T20:33:48.122Z,70.49
2022-11-06T20:36:26.723Z,71.51
2022-11-06T20:38:55.920Z,71.22
2022-11-06T20:41:24.420Z,70.38
2022-11-06T20:43:53.325Z,69.71
2022-11-06T20:46:21.688Z,71.79
2022-11-06T20:48:50.091Z,71.84
2022-11-06T20:51:21.755Z,72.66
2022-11-06T20:53:50.010Z,70.86
2022-11-06T20:56:20.864Z,69.92
2022-11-06T20:58:48.533Z,69.03
2022-11-06T21:01:25.690Z,70.13
2022-11-06T21:03:53.806Z,69.64
2022-11-06T21:06:24.573Z,68.73
2022-11-06T21:08:52.358Z,68.63
2022-11-06T21:11:23.183Z,68.55
2022-11-06T21:13:53.614Z,69.66
2022-11-06T21:16:27.764Z,68.17
2022-11-06T21:18:55.333Z,68.09
2022-11-06T21:21:27.917Z,68.74
2022-11-06T21:23:56.443Z,71.32
2022-11-06T21:26:27.191Z,69.64
2022-11-06T21:28:56.055Z,68.50
2022-11-06T21:31:28.343Z,68.95
2022-11-06T21:33:58.124Z,69.28
2022-11-06T21:36:28.557Z,68.12
2022-11-06T21:38:59.827Z,66.15
2022-11-06T21:41:29.318Z,67.24
2022-11-06T21:43:57.603Z,68.81
2022-11-06T21:46:25.199Z,64.96
2022-11-06T21:48:53.075Z,67.34
2022-11-06T21:51:27.079Z,68.49
2022-11-06T21:54:14.311Z,67.58
2022-11-06T21:56:42.919Z,67.05
2022-11-06T21:59:14.064Z,68.65
2022-11-06T22:01:42.634Z,67.46
2022-11-06T22:04:11.300Z,62.85
2022-11-06T22:06:42.271Z,67.53
2022-11-06T22:09:11.076Z,67.78
2022-11-06T22:11:40.822Z,66.63
2022-11-06T22:14:16.762Z,68.01
2022-11-06T22:16:47.447Z,67.32
2022-11-06T22:19:16.750Z,68.08
2022-11-06T22:21:56.276Z,67.21
2022-11-06T22:24:24.152Z,67.76
2022-11-06T22:26:54.048Z,66.67
2022-11-06T22:29:21.575Z,67.38
2022-11-06T22:31:48.943Z,67.10
2022-11-06T22:34:16.392Z,66.36
2022-11-06T22:36:44.344Z,66.29
2022-11-06T22:39:12.663Z,67.15
2022-11-06T22:41:41.911Z,66.17
2022-11-06T22:44:09.813Z,66.22
2022-11-06T22:46:37.583Z,65.20
2022-11-06T22:49:05.749Z,65.34
2022-11-06T22:51:36.415Z,68.06
2022-11-06T22:54:04.213Z,64.92
2022-11-06T22:56:33.298Z,66.86
2022-11-06T22:59:22.887Z,67.53
2022-11-06T23:01:50.831Z,67.85
2022-11-06T23:04:18.847Z,67.71
2022-11-06T23:06:47.097Z,66.76
2022-11-06T23:09:20.278Z,66.78
2022-11-06T23:11:48.285Z,67.08
2022-11-06T23:14:16.092Z,66.52
2022-11-06T23:17:01.152Z,65.87
2022-11-06T23:19:31.129Z,66.20
2022-11-06T23:22:17.880Z,65.64
2022-11-06T23:24:45.705Z,67.51
2022-11-06T23:27:13.532Z,66.68
2022-11-06T23:29:41.025Z,67.14
2022-11-06T23:32:11.020Z,65.95
2022-11-06T23:34:38.580Z,66.62
2022-11-06T23:37:09.274Z,66.01
2022-11-06T23:39:39.700Z,67.02
2022-11-06T23:42:25.219Z,66.74
2022-11-06T23:45:28.065Z,66.78
2022-11-06T23:49:03.320Z,66.62
2022-11-06T23:51:36.152Z,65.87
2022-11-06T23:54:34.444Z,67.98
2022-11-06T23:57:20.728Z,66.99
2022-11-06T23:59:49.027Z,66.70
